Time;durP1;ratioP1;P1;durP2;ratioP2;P2;SDS_P1;SDS_P2;PMS_P1;PMS_P2;Temp;Humidity;BMP_temperature;BMP_pressure;BME280_temperature;BME280_humidity;BME280_pressure;Samples;Min_cycle;Max_cycle;Signal;HPM_P1;HPM_P2
2023/04/03 00:00:28;;;;;;;;;;;;;;;;;;5096578;28;876;-70
2023/04/03 00:02:53;;;;;;;;;;;;;;;;;;5096472;28;1404;-70
2023/04/03 00:05:18;;;;;;;;;;;;;;;;;;5096377;28;1969;-70
2023/04/03 00:07:44;;;;;;;;;;;;;;;;;;5096519;28;1286;-70
2023/04/03 00:10:09;;;;;;;;;;;;;;;;;;5096645;28;1234;-70
2023/04/03 00:12:35;;;;;;;;;;;;;;;;;;5079030;28;1100;-70
2023/04/03 00:15:00;;;;;;;;;;;;;;;;;;5096042;28;1314;-69
2023/04/03 00:17:25;;;;;;;;;;;;;;;;;;5096565;28;821;-70
2023/04/03 00:19:50;;;;;;;;;;;;;;;;;;5095496;28;868;-71
2023/04/03 00:22:16;;;;;;;;;;;;;;;;;;5095637;28;1019;-71
2023/04/03 00:24:41;;;;;;;;;;;;;;;;;;5113854;28;1925;-71
2023/04/03 00:27:07;;;;;;;;;;;;;;;;;;5078548;28;1368;-71
2023/04/03 00:29:32;;;;;;;;;;;;;;;;;;5078890;28;1190;-71
2023/04/03 00:31:57;;;;;;;;;;;;;;;;;;5113755;28;884;-71
2023/04/03 00:34:22;;;;;;;;;;;;;;;;;;5113447;28;892;-71
2023/04/03 00:36:48;;;;;;;;;;;;;;;;;;5100629;28;1349;-70
2023/04/03 00:39:13;;;;;;;;;;;;;;;;;;5129804;28;844;-70
2023/04/03 00:41:38;;;;;;;;;;;;;;;;;;5095282;28;1293;-71
2023/04/03 00:44:42;;;;;;;;;;;;;;;;;;5094758;28;1889;-71
2023/04/03 00:47:12;;;;;;;;;;;;;;;;;;5095129;28;1234;-71
2023/04/03 00:49:38;;;;;;;;;;;;;;;;;;5113643;28;919;-71
2023/04/03 00:52:06;;;;;;;;;;;;;;;;;;5094608;28;1293;-71
2023/04/03 00:54:32;;;;;;;;;;;;;;;;;;5107465;28;1255;-71
2023/04/03 00:56:58;;;;;;;;;;;;;;;;;;5111618;28;1211;-71
2023/04/03 00:59:46;;;;;;;;;;;;;;;;;;5094754;28;1191;-71
2023/04/03 01:02:12;;;;;;;;;;;;;;;;;;5099060;28;1000;-71
2023/04/03 01:04:39;;;;;;;;;;;;;;;;;;5112815;28;1910;-71
2023/04/03 01:07:10;;;;;;;;;;;;;;;;;;5112455;28;1073;-71
2023/04/03 01:09:36;;;;;;;;;;;;;;;;;;5094148;28;1214;-71
2023/04/03 01:12:17;;;;;;;;;;;;;;;;;;5094564;28;1350;-71
2023/04/03 01:14:46;;;;;;;;;;;;;;;;;;5112519;28;930;-70
2023/04/03 01:17:28;;;;;;;;;;;;;;;;;;5113020;28;919;-71
2023/04/03 01:20:03;;;;;;;;;;;;;;;;;;5112608;28;896;-71
2023/04/03 01:22:35;;;;;;;;;;;;;;;;;;5095022;28;1215;-71
2023/04/03 01:25:01;;;;;;;;;;;;;;;;;;5116888;28;1970;-71
2023/04/03 01:27:27;;;;;;;;;;;;;;;;;;5098517;28;1199;-71
2023/04/03 01:29:52;;;;;;;;;;;;;;;;;;5081508;28;1452;-71
2023/04/03 01:32:17;;;;;;;;;;;;;;;;;;5081968;28;1313;-71
2023/04/03 01:34:43;;;;;;;;;;;;;;;;;;5081859;28;1230;-71
2023/04/03 01:37:08;;;;;;;;;;;;;;;;;;5099070;28;852;-71
2023/04/03 01:39:34;;;;;;;;;;;;;;;;;;5116894;28;1057;-71
2023/04/03 01:41:59;;;;;;;;;;;;;;;;;;5098846;28;1373;-71
2023/04/03 01:44:25;;;;;;;;;;;;;;;;;;5099117;28;1978;-71
2023/04/03 01:46:50;;;;;;;;;;;;;;;;;;5116639;28;916;-71
2023/04/03 01:49:15;;;;;;;;;;;;;;;;;;5099080;28;1373;-71
2023/04/03 01:51:40;;;;;;;;;;;;;;;;;;5100428;28;923;-71
2023/04/03 01:54:06;;;;;;;;;;;;;;;;;;5087964;28;1333;-71
2023/04/03 01:56:31;;;;;;;;;;;;;;;;;;5104094;28;1163;-71
2023/04/03 01:58:56;;;;;;;;;;;;;;;;;;5116008;28;837;-71
2023/04/03 02:01:22;;;;;;;;;;;;;;;;;;5116208;28;915;-71
2023/04/03 02:03:47;;;;;;;;;;;;;;;;;;5115528;28;1969;-71
2023/04/03 02:06:13;;;;;;;;;;;;;;;;;;5097272;28;1310;-71
2023/04/03 02:08:38;;;;;;;;;;;;;;;;;;5097835;28;1212;-72
2023/04/03 02:11:03;;;;;;;;;;;;;;;;;;5115774;28;939;-71
2023/04/03 02:13:28;;;;;;;;;;;;;;;;;;5097210;28;1234;-71
2023/04/03 02:15:54;;;;;;;;;;;;;;;;;;5080077;28;1283;-71
2023/04/03 02:18:19;;;;;;;;;;;;;;;;;;5080501;28;1218;-71
2023/04/03 02:20:46;;;;;;;;;;;;;;;;;;5115259;28;864;-71
2023/04/03 02:23:11;;;;;;;;;;;;;;;;;;5115512;28;1897;-71
2023/04/03 02:25:36;;;;;;;;;;;;;;;;;;5097592;28;907;-71
2023/04/03 02:28:02;;;;;;;;;;;;;;;;;;5115295;28;998;-71
2023/04/03 02:30:27;;;;;;;;;;;;;;;;;;5080180;28;1382;-71
2023/04/03 02:32:52;;;;;;;;;;;;;;;;;;5080287;28;1277;-71
2023/04/03 02:35:17;;;;;;;;;;;;;;;;;;5079980;28;1384;-71
2023/04/03 02:37:43;;;;;;;;;;;;;;;;;;5115116;28;832;-71
2023/04/03 02:40:08;;;;;;;;;;;;;;;;;;5096838;28;1361;-71
2023/04/03 02:42:34;;;;;;;;;;;;;;;;;;5096846;28;1262;-71
2023/04/03 02:45:00;;;;;;;;;;;;;;;;;;5079544;28;1906;-71
2023/04/03 02:47:26;;;;;;;;;;;;;;;;;;5096955;28;1238;-71
2023/04/03 02:49:52;;;;;;;;;;;;;;;;;;5114742;28;649;-71
2023/04/03 02:52:18;;;;;;;;;;;;;;;;;;5096863;28;1338;-71
2023/04/03 02:54:43;;;;;;;;;;;;;;;;;;5115027;28;1060;-71
2023/04/03 02:57:08;;;;;;;;;;;;;;;;;;5096449;28;1211;-71
2023/04/03 02:59:34;;;;;;;;;;;;;;;;;;5080185;28;1338;-71
2023/04/03 03:01:59;;;;;;;;;;;;;;;;;;5096948;28;852;-71
2023/04/03 03:04:25;;;;;;;;;;;;;;;;;;5115763;28;1975;-71
2023/04/03 03:06:50;;;;;;;;;;;;;;;;;;5096667;28;1224;-71
2023/04/03 03:09:15;;;;;;;;;;;;;;;;;;5096971;28;836;-71
2023/04/03 03:11:41;;;;;;;;;;;;;;;;;;5097041;28;836;-71
2023/04/03 03:14:06;;;;;;;;;;;;;;;;;;5114786;28;1053;-71
2023/04/03 03:16:31;;;;;;;;;;;;;;;;;;5115256;28;1077;-70
2023/04/03 03:18:56;;;;;;;;;;;;;;;;;;5079825;28;1296;-70
2023/04/03 03:21:22;;;;;;;;;;;;;;;;;;5097351;28;1009;-70
2023/04/03 03:23:47;;;;;;;;;;;;;;;;;;5115543;28;1909;-70
2023/04/03 03:26:12;;;;;;;;;;;;;;;;;;5114753;28;892;-70
2023/04/03 03:28:39;;;;;;;;;;;;;;;;;;5113494;28;1333;-71
2023/04/03 03:31:05;;;;;;;;;;;;;;;;;;5095645;28;935;-70
2023/04/03 03:33:30;;;;;;;;;;;;;;;;;;5114522;28;824;-71
2023/04/03 03:35:55;;;;;;;;;;;;;;;;;;5095796;28;946;-70
2023/04/03 03:38:21;;;;;;;;;;;;;;;;;;5114396;28;930;-71
2023/04/03 03:40:47;;;;;;;;;;;;;;;;;;5095468;28;1293;-70
2023/04/03 03:43:12;;;;;;;;;;;;;;;;;;5113905;28;1928;-71
2023/04/03 03:45:38;;;;;;;;;;;;;;;;;;5078701;28;1293;-70
2023/04/03 03:48:03;;;;;;;;;;;;;;;;;;5113715;28;805;-70
2023/04/03 03:50:28;;;;;;;;;;;;;;;;;;5095637;28;982;-70
2023/04/03 03:52:54;;;;;;;;;;;;;;;;;;5113836;28;991;-70
2023/04/03 03:55:19;;;;;;;;;;;;;;;;;;5078867;28;1251;-71
2023/04/03 03:57:44;;;;;;;;;;;;;;;;;;5095426;28;1341;-70
2023/04/03 04:00:10;;;;;;;;;;;;;;;;;;5095439;28;970;-70
2023/04/03 04:02:35;;;;;;;;;;;;;;;;;;5112712;28;1222;-70
2023/04/03 04:05:00;;;;;;;;;;;;;;;;;;5078151;28;1914;-70
2023/04/03 04:07:27;;;;;;;;;;;;;;;;;;5095216;28;1080;-70
2023/04/03 04:09:53;;;;;;;;;;;;;;;;;;5078724;28;1265;-71
2023/04/03 04:12:20;;;;;;;;;;;;;;;;;;5108368;28;1013;-70
2023/04/03 04:14:46;;;;;;;;;;;;;;;;;;5110215;28;824;-70
2023/04/03 04:17:12;;;;;;;;;;;;;;;;;;5114206;28;832;-71
2023/04/03 04:19:37;;;;;;;;;;;;;;;;;;5113867;28;947;-71
2023/04/03 04:22:03;;;;;;;;;;;;;;;;;;5113775;28;980;-71
2023/04/03 04:24:28;;;;;;;;;;;;;;;;;;5113861;28;1914;-70
2023/04/03 04:26:54;;;;;;;;;;;;;;;;;;5095544;28;1289;-69
2023/04/03 04:29:19;;;;;;;;;;;;;;;;;;5095288;28;855;-69
2023/04/03 04:31:44;;;;;;;;;;;;;;;;;;5095535;28;917;-69
2023/04/03 04:34:10;;;;;;;;;;;;;;;;;;5095254;28;1270;-69
2023/04/03 04:36:35;;;;;;;;;;;;;;;;;;5095243;28;812;-69
2023/04/03 04:39:00;;;;;;;;;;;;;;;;;;5113294;28;891;-69
2023/04/03 04:41:26;;;;;;;;;;;;;;;;;;5113772;28;904;-69
2023/04/03 04:43:51;;;;;;;;;;;;;;;;;;5095195;28;1897;-69
2023/04/03 04:46:17;;;;;;;;;;;;;;;;;;5095481;28;1108;-69
2023/04/03 04:48:42;;;;;;;;;;;;;;;;;;5095583;28;1174;-69
2023/04/03 04:51:08;;;;;;;;;;;;;;;;;;5075662;28;1251;-69
2023/04/03 04:53:33;;;;;;;;;;;;;;;;;;5105390;28;1156;-69
2023/04/03 04:55:59;;;;;;;;;;;;;;;;;;5061745;28;1207;-69
2023/04/03 04:58:25;;;;;;;;;;;;;;;;;;5095316;28;1136;-69
2023/04/03 05:00:57;;;;;;;;;;;;;;;;;;5105307;28;1167;-69
2023/04/03 05:03:23;;;;;;;;;;;;;;;;;;5089674;28;1957;-69
2023/04/03 05:05:48;;;;;;;;;;;;;;;;;;5099277;28;1207;-69
2023/04/03 05:08:13;;;;;;;;;;;;;;;;;;5081679;28;1183;-68
2023/04/03 05:10:40;;;;;;;;;;;;;;;;;;5099170;28;990;-68
2023/04/03 05:13:05;;;;;;;;;;;;;;;;;;5098807;28;804;-69
2023/04/03 05:15:31;;;;;;;;;;;;;;;;;;5099043;28;1297;-69
2023/04/03 05:17:56;;;;;;;;;;;;;;;;;;5116330;28;1065;-69
2023/04/03 05:20:21;;;;;;;;;;;;;;;;;;5115731;28;1117;-69
2023/04/03 05:22:46;;;;;;;;;;;;;;;;;;5081620;28;1289;-69
2023/04/03 05:25:12;;;;;;;;;;;;;;;;;;5081016;28;1959;-71
2023/04/03 05:27:37;;;;;;;;;;;;;;;;;;5098119;28;1222;-72
2023/04/03 05:30:04;;;;;;;;;;;;;;;;;;5098191;28;1139;-71
2023/04/03 05:32:29;;;;;;;;;;;;;;;;;;5081913;28;1364;-72
2023/04/03 05:34:54;;;;;;;;;;;;;;;;;;5114834;28;1182;-72
2023/04/03 05:37:20;;;;;;;;;;;;;;;;;;5115109;28;876;-72
2023/04/03 05:39:45;;;;;;;;;;;;;;;;;;5098375;28;1202;-71
2023/04/03 05:42:11;;;;;;;;;;;;;;;;;;5081034;28;1431;-72
2023/04/03 05:44:37;;;;;;;;;;;;;;;;;;5116497;28;1893;-72
2023/04/03 05:47:02;;;;;;;;;;;;;;;;;;5114780;28;1078;-72
2023/04/03 05:49:30;;;;;;;;;;;;;;;;;;5116465;28;848;-72
2023/04/03 05:51:55;;;;;;;;;;;;;;;;;;5081474;28;1446;-72
2023/04/03 05:54:26;;;;;;;;;;;;;;;;;;5081494;28;1106;-72
2023/04/03 05:56:54;;;;;;;;;;;;;;;;;;5098003;28;1476;-72
2023/04/03 05:59:20;;;;;;;;;;;;;;;;;;5115847;28;910;-72
2023/04/03 06:01:45;;;;;;;;;;;;;;;;;;5099016;28;845;-72
2023/04/03 06:04:12;;;;;;;;;;;;;;;;;;5116378;28;1890;-72
2023/04/03 06:06:49;;;;;;;;;;;;;;;;;;5116353;28;1151;-72
2023/04/03 06:09:18;;;;;;;;;;;;;;;;;;5097231;28;1309;-72
2023/04/03 06:11:44;;;;;;;;;;;;;;;;;;5098742;28;1183;-72
2023/04/03 06:14:10;;;;;;;;;;;;;;;;;;5116517;28;891;-71
2023/04/03 06:16:36;;;;;;;;;;;;;;;;;;5097905;28;1080;-72
2023/04/03 06:19:02;;;;;;;;;;;;;;;;;;5097527;28;880;-71
2023/04/03 06:21:27;;;;;;;;;;;;;;;;;;5097914;28;1012;-71
2023/04/03 06:23:52;;;;;;;;;;;;;;;;;;5080882;28;1971;-72
2023/04/03 06:26:17;;;;;;;;;;;;;;;;;;5097316;28;919;-72
2023/04/03 06:28:43;;;;;;;;;;;;;;;;;;5114121;28;1238;-72
2023/04/03 06:31:08;;;;;;;;;;;;;;;;;;5079801;28;1349;-72
2023/04/03 06:33:34;;;;;;;;;;;;;;;;;;5115956;28;851;-72
2023/04/03 06:35:59;;;;;;;;;;;;;;;;;;5097123;28;1232;-71
2023/04/03 06:38:25;;;;;;;;;;;;;;;;;;5097056;28;1250;-71
2023/04/03 06:40:51;;;;;;;;;;;;;;;;;;5097195;28;1423;-71
2023/04/03 06:43:17;;;;;;;;;;;;;;;;;;5096834;28;1033;-71
2023/04/03 06:45:42;;;;;;;;;;;;;;;;;;5115281;28;1975;-72
2023/04/03 06:48:07;;;;;;;;;;;;;;;;;;5096694;28;1215;-71
2023/04/03 06:50:33;;;;;;;;;;;;;;;;;;5079567;28;1293;-71
2023/04/03 06:53:02;;;;;;;;;;;;;;;;;;5096729;28;765;-71
2023/04/03 06:55:27;;;;;;;;;;;;;;;;;;5097120;28;1367;-71
2023/04/03 06:57:53;;;;;;;;;;;;;;;;;;5115112;28;918;-71
2023/04/03 07:00:18;;;;;;;;;;;;;;;;;;5114475;28;986;-71
2023/04/03 07:02:43;;;;;;;;;;;;;;;;;;5095330;28;880;-67
2023/04/03 07:05:09;;;;;;;;;;;;;;;;;;5079028;28;1959;-68
2023/04/03 07:07:35;;;;;;;;;;;;;;;;;;5077176;28;1520;-68
2023/04/03 07:10:01;;;;;;;;;;;;;;;;;;5079318;28;1464;-68
2023/04/03 07:12:26;;;;;;;;;;;;;;;;;;5114815;28;836;-68
2023/04/03 07:14:51;;;;;;;;;;;;;;;;;;5095936;28;1289;-68
2023/04/03 07:17:16;;;;;;;;;;;;;;;;;;5095945;28;935;-68
2023/04/03 07:19:42;;;;;;;;;;;;;;;;;;5114532;28;860;-68
2023/04/03 07:22:08;;;;;;;;;;;;;;;;;;5078301;28;1345;-68
2023/04/03 07:24:33;;;;;;;;;;;;;;;;;;5114479;28;1913;-68
2023/04/03 07:26:58;;;;;;;;;;;;;;;;;;5096190;28;1211;-68
2023/04/03 07:29:23;;;;;;;;;;;;;;;;;;5114476;28;962;-68
2023/04/03 07:31:49;;;;;;;;;;;;;;;;;;5114871;28;935;-69
2023/04/03 07:34:14;;;;;;;;;;;;;;;;;;5095960;28;829;-68
2023/04/03 07:36:40;;;;;;;;;;;;;;;;;;5097005;28;856;-68
2023/04/03 07:39:06;;;;;;;;;;;;;;;;;;5079589;28;1238;-68
2023/04/03 07:41:32;;;;;;;;;;;;;;;;;;5096318;28;1242;-68
2023/04/03 07:43:58;;;;;;;;;;;;;;;;;;5096871;28;1965;-68
2023/04/03 07:46:23;;;;;;;;;;;;;;;;;;5126824;28;923;-69
2023/04/03 07:48:48;;;;;;;;;;;;;;;;;;5133652;28;1026;-68
2023/04/03 07:51:14;;;;;;;;;;;;;;;;;;5105599;28;1174;-69
2023/04/03 07:53:40;;;;;;;;;;;;;;;;;;5080138;28;1491;-68
2023/04/03 07:56:05;;;;;;;;;;;;;;;;;;5115186;28;776;-68
2023/04/03 07:58:30;;;;;;;;;;;;;;;;;;5096164;28;1121;-68
2023/04/03 08:00:56;;;;;;;;;;;;;;;;;;5114256;28;1042;-68
2023/04/03 08:03:21;;;;;;;;;;;;;;;;;;5095331;28;1176;-68
2023/04/03 08:05:47;;;;;;;;;;;;;;;;;;5094981;28;1894;-69
2023/04/03 08:08:13;;;;;;;;;;;;;;;;;;5094804;28;1182;-68
2023/04/03 08:10:39;;;;;;;;;;;;;;;;;;5114058;28;860;-70
2023/04/03 08:13:04;;;;;;;;;;;;;;;;;;5113358;28;938;-70
2023/04/03 08:15:30;;;;;;;;;;;;;;;;;;5095165;28;817;-71
2023/04/03 08:17:55;;;;;;;;;;;;;;;;;;5077787;28;1587;-71
2023/04/03 08:20:21;;;;;;;;;;;;;;;;;;5112870;28;1179;-71
2023/04/03 08:22:46;;;;;;;;;;;;;;;;;;5112089;28;1390;-71
2023/04/03 08:25:12;;;;;;;;;;;;;;;;;;5095046;28;1910;-69
2023/04/03 08:27:38;;;;;;;;;;;;;;;;;;5095308;28;1304;-70
2023/04/03 08:30:04;;;;;;;;;;;;;;;;;;5095480;28;947;-70
2023/04/03 08:32:29;;;;;;;;;;;;;;;;;;5094290;28;860;-70
2023/04/03 08:34:54;;;;;;;;;;;;;;;;;;5094850;28;1344;-70
2023/04/03 08:37:20;;;;;;;;;;;;;;;;;;5094769;28;785;-70
2023/04/03 08:39:45;;;;;;;;;;;;;;;;;;5113276;28;817;-70
2023/04/03 08:42:29;;;;;;;;;;;;;;;;;;5094698;28;1219;-70
2023/04/03 08:45:05;;;;;;;;;;;;;;;;;;5113222;28;1961;-70
2023/04/03 08:47:31;;;;;;;;;;;;;;;;;;5111712;28;1369;-71
2023/04/03 08:49:56;;;;;;;;;;;;;;;;;;5094876;28;1199;-72
2023/04/03 08:52:23;;;;;;;;;;;;;;;;;;5094622;28;1211;-72
2023/04/03 08:54:49;;;;;;;;;;;;;;;;;;5113310;28;833;-71
2023/04/03 08:57:14;;;;;;;;;;;;;;;;;;5113378;28;927;-71
2023/04/03 08:59:40;;;;;;;;;;;;;;;;;;5095243;28;1267;-71
2023/04/03 09:02:26;;;;;;;;;;;;;;;;;;5094996;28;915;-71
2023/04/03 09:04:51;;;;;;;;;;;;;;;;;;5112910;28;1890;-71
2023/04/03 09:07:23;;;;;;;;;;;;;;;;;;5113160;28;1397;-71
2023/04/03 09:09:50;;;;;;;;;;;;;;;;;;5112323;28;1212;-71
2023/04/03 09:12:23;;;;;;;;;;;;;;;;;;5113448;28;851;-72
2023/04/03 09:14:58;;;;;;;;;;;;;;;;;;5112452;28;1230;-71
2023/04/03 09:17:36;;;;;;;;;;;;;;;;;;5095369;28;1324;-72
2023/04/03 09:20:01;;;;;;;;;;;;;;;;;;5095105;28;1214;-72
2023/04/03 09:22:28;;;;;;;;;;;;;;;;;;5113460;28;981;-71
2023/04/03 09:25:25;;;;;;;;;;;;;;;;;;5113309;28;1977;-71
2023/04/03 09:27:51;;;;;;;;;;;;;;;;;;5057470;28;1234;-72
2023/04/03 09:30:21;;;;;;;;;;;;;;;;;;5095056;28;1200;-72
2023/04/03 09:32:48;;;;;;;;;;;;;;;;;;5095170;28;1187;-72
2023/04/03 09:35:14;;;;;;;;;;;;;;;;;;5113142;28;963;-71
2023/04/03 09:37:43;;;;;;;;;;;;;;;;;;5094115;28;1310;-72
2023/04/03 09:40:28;;;;;;;;;;;;;;;;;;5095055;28;1123;-72
2023/04/03 09:42:54;;;;;;;;;;;;;;;;;;5094163;28;1152;-72
2023/04/03 09:45:33;;;;;;;;;;;;;;;;;;5114767;28;1902;-72
2023/04/03 09:48:06;;;;;;;;;;;;;;;;;;5097861;28;1194;-72
2023/04/03 09:50:32;;;;;;;;;;;;;;;;;;5098052;28;1321;-72
2023/04/03 09:52:57;;;;;;;;;;;;;;;;;;5098071;28;1413;-72
2023/04/03 09:55:29;;;;;;;;;;;;;;;;;;5097888;28;1285;-72
2023/04/03 09:57:58;;;;;;;;;;;;;;;;;;5115897;28;868;-72
2023/04/03 10:00:41;;;;;;;;;;;;;;;;;;5115762;28;840;-72
2023/04/03 10:03:24;;;;;;;;;;;;;;;;;;5115897;28;798;-72
2023/04/03 10:05:51;;;;;;;;;;;;;;;;;;5097180;28;1959;-72
2023/04/03 10:08:16;;;;;;;;;;;;;;;;;;5097145;28;1520;-72
2023/04/03 10:10:42;;;;;;;;;;;;;;;;;;5097690;28;1252;-72
2023/04/03 10:13:13;;;;;;;;;;;;;;;;;;5097352;28;1208;-73
2023/04/03 10:15:52;;;;;;;;;;;;;;;;;;5116079;28;852;-72
2023/04/03 10:18:29;;;;;;;;;;;;;;;;;;5115954;28;840;-72
2023/04/03 10:20:57;;;;;;;;;;;;;;;;;;5115630;28;1010;-72
2023/04/03 10:23:26;;;;;;;;;;;;;;;;;;5115737;28;848;-72
2023/04/03 10:25:52;;;;;;;;;;;;;;;;;;5097026;28;1961;-73
2023/04/03 10:28:29;;;;;;;;;;;;;;;;;;5115577;28;903;-73
2023/04/03 10:31:01;;;;;;;;;;;;;;;;;;5115755;28;880;-73
2023/04/03 10:33:36;;;;;;;;;;;;;;;;;;5113883;28;1272;-72
2023/04/03 10:36:12;;;;;;;;;;;;;;;;;;5097639;28;1219;-72
2023/04/03 10:38:51;;;;;;;;;;;;;;;;;;5097620;28;1263;-72
2023/04/03 10:41:20;;;;;;;;;;;;;;;;;;5115282;28;942;-72
2023/04/03 10:44:04;;;;;;;;;;;;;;;;;;5115341;28;1905;-72
2023/04/03 10:46:38;;;;;;;;;;;;;;;;;;5080014;28;1390;-72
2023/04/03 10:49:15;;;;;;;;;;;;;;;;;;5115513;28;900;-72
2023/04/03 10:51:47;;;;;;;;;;;;;;;;;;5115947;28;868;-72
2023/04/03 10:54:18;;;;;;;;;;;;;;;;;;5116226;28;888;-73
2023/04/03 10:56:52;;;;;;;;;;;;;;;;;;5115806;28;1022;-72
2023/04/03 10:59:38;;;;;;;;;;;;;;;;;;5097593;28;1076;-72
2023/04/03 11:02:07;;;;;;;;;;;;;;;;;;5098207;28;1407;-72
2023/04/03 11:04:35;;;;;;;;;;;;;;;;;;5109482;28;1967;-73
2023/04/03 11:07:03;;;;;;;;;;;;;;;;;;5090290;28;1211;-73
2023/04/03 11:09:37;;;;;;;;;;;;;;;;;;5061365;28;1194;-72
2023/04/03 11:12:10;;;;;;;;;;;;;;;;;;5068418;28;1281;-72
2023/04/03 11:14:37;;;;;;;;;;;;;;;;;;5055053;28;1220;-71
2023/04/03 11:17:17;;;;;;;;;;;;;;;;;;5055110;28;1161;-71
2023/04/03 11:19:43;;;;;;;;;;;;;;;;;;5054365;28;947;-70
2023/04/03 11:22:13;;;;;;;;;;;;;;;;;;5049059;28;1119;-71
2023/04/03 11:24:41;;;;;;;;;;;;;;;;;;5050913;28;1962;-72
2023/04/03 11:27:14;;;;;;;;;;;;;;;;;;5054510;28;960;-72
2023/04/03 11:29:40;;;;;;;;;;;;;;;;;;5036185;28;1195;-72
2023/04/03 11:32:06;;;;;;;;;;;;;;;;;;5053856;28;845;-72
2023/04/03 11:34:34;;;;;;;;;;;;;;;;;;5036176;28;1347;-72
2023/04/03 11:37:00;;;;;;;;;;;;;;;;;;5036350;28;1228;-72
2023/04/03 11:39:31;;;;;;;;;;;;;;;;;;5054180;28;852;-72
2023/04/03 11:42:15;;;;;;;;;;;;;;;;;;5053721;28;922;-71
2023/04/03 11:44:41;;;;;;;;;;;;;;;;;;5052334;28;2244;-71
2023/04/03 11:47:07;;;;;;;;;;;;;;;;;;5035548;28;1220;-71
2023/04/03 11:49:52;;;;;;;;;;;;;;;;;;5035786;28;1093;-71
2023/04/03 11:52:36;;;;;;;;;;;;;;;;;;5052044;28;1516;-71
2023/04/03 11:55:02;;;;;;;;;;;;;;;;;;5053501;28;1011;-71
2023/04/03 11:58:02;;;;;;;;;;;;;;;;;;5054116;28;998;-72
2023/04/03 12:00:46;;;;;;;;;;;;;;;;;;5031269;28;1255;-71
2023/04/03 12:03:27;;;;;;;;;;;;;;;;;;5052485;28;1173;-72
2023/04/03 12:05:57;;;;;;;;;;;;;;;;;;5053279;28;1969;-70
2023/04/03 12:08:26;;;;;;;;;;;;;;;;;;5068069;28;1121;-71
2023/04/03 12:11:13;;;;;;;;;;;;;;;;;;5055041;28;1283;-71
2023/04/03 12:13:42;;;;;;;;;;;;;;;;;;5073007;28;923;-70
2023/04/03 12:16:21;;;;;;;;;;;;;;;;;;5086692;28;1223;-71
2023/04/03 12:18:50;;;;;;;;;;;;;;;;;;5112232;28;1305;-70
2023/04/03 12:21:19;;;;;;;;;;;;;;;;;;5093695;28;1285;-70
2023/04/03 12:24:03;;;;;;;;;;;;;;;;;;5089328;28;1917;-71
2023/04/03 12:26:28;;;;;;;;;;;;;;;;;;5113611;28;840;-70
2023/04/03 12:28:55;;;;;;;;;;;;;;;;;;5113704;28;931;-71
2023/04/03 12:31:22;;;;;;;;;;;;;;;;;;5113905;28;883;-71
2023/04/03 12:34:06;;;;;;;;;;;;;;;;;;5113611;28;965;-70
2023/04/03 12:36:34;;;;;;;;;;;;;;;;;;5095714;28;1363;-71
2023/04/03 12:39:18;;;;;;;;;;;;;;;;;;5095572;28;1196;-70
2023/04/03 12:41:50;;;;;;;;;;;;;;;;;;5095551;28;1243;-71
2023/04/03 12:44:26;;;;;;;;;;;;;;;;;;5113794;28;1914;-71
2023/04/03 12:46:55;;;;;;;;;;;;;;;;;;5095353;28;1540;-70
2023/04/03 12:49:26;;;;;;;;;;;;;;;;;;5113491;28;896;-71
2023/04/03 12:51:52;;;;;;;;;;;;;;;;;;5095463;28;1297;-71
2023/04/03 12:54:23;;;;;;;;;;;;;;;;;;5113337;28;931;-71
2023/04/03 12:56:49;;;;;;;;;;;;;;;;;;5113030;28;824;-71
2023/04/03 12:59:16;;;;;;;;;;;;;;;;;;5094918;28;1315;-71
2023/04/03 13:01:42;;;;;;;;;;;;;;;;;;5111826;28;1305;-71
2023/04/03 13:04:11;;;;;;;;;;;;;;;;;;5112769;28;1914;-71
2023/04/03 13:06:40;;;;;;;;;;;;;;;;;;5094627;28;1202;-71
2023/04/03 13:09:06;;;;;;;;;;;;;;;;;;5112707;28;1226;-71
2023/04/03 13:11:35;;;;;;;;;;;;;;;;;;5112715;28;848;-71
2023/04/03 13:14:05;;;;;;;;;;;;;;;;;;5094492;28;1365;-71
2023/04/03 13:16:31;;;;;;;;;;;;;;;;;;5112479;28;877;-71
2023/04/03 13:18:56;;;;;;;;;;;;;;;;;;5094363;28;1274;-71
2023/04/03 13:21:25;;;;;;;;;;;;;;;;;;5116583;28;975;-71
2023/04/03 13:23:52;;;;;;;;;;;;;;;;;;5098235;28;1917;-71
2023/04/03 13:26:19;;;;;;;;;;;;;;;;;;5098643;28;1217;-71
2023/04/03 13:28:46;;;;;;;;;;;;;;;;;;5098216;28;1309;-71
2023/04/03 13:31:14;;;;;;;;;;;;;;;;;;5116670;28;832;-70
2023/04/03 13:33:52;;;;;;;;;;;;;;;;;;5098661;28;1092;-70
2023/04/03 13:36:20;;;;;;;;;;;;;;;;;;5116713;28;863;-70
2023/04/03 13:38:46;;;;;;;;;;;;;;;;;;5116353;28;897;-70
2023/04/03 13:41:26;;;;;;;;;;;;;;;;;;5081426;28;1584;-70
2023/04/03 13:43:51;;;;;;;;;;;;;;;;;;5116280;28;1902;-70
2023/04/03 13:46:16;;;;;;;;;;;;;;;;;;5110527;28;1215;-70
2023/04/03 13:48:47;;;;;;;;;;;;;;;;;;5088242;28;1333;-72
2023/04/03 13:51:12;;;;;;;;;;;;;;;;;;5065225;28;1217;-71
2023/04/03 13:53:46;;;;;;;;;;;;;;;;;;5116074;28;1164;-71
2023/04/03 13:56:21;;;;;;;;;;;;;;;;;;5098368;28;1323;-71
2023/04/03 13:58:57;;;;;;;;;;;;;;;;;;5097380;28;1211;-71
2023/04/03 14:01:23;;;;;;;;;;;;;;;;;;5116806;28;864;-71
2023/04/03 14:03:54;;;;;;;;;;;;;;;;;;5113770;28;1886;-71
2023/04/03 14:06:20;;;;;;;;;;;;;;;;;;5097295;28;1222;-71
2023/04/03 14:08:48;;;;;;;;;;;;;;;;;;5098304;28;1234;-71
2023/04/03 14:11:15;;;;;;;;;;;;;;;;;;5116933;28;813;-71
2023/04/03 14:13:40;;;;;;;;;;;;;;;;;;5117373;28;872;-71
2023/04/03 14:16:06;;;;;;;;;;;;;;;;;;5116332;28;856;-72
2023/04/03 14:18:31;;;;;;;;;;;;;;;;;;5117018;28;871;-71
2023/04/03 14:20:58;;;;;;;;;;;;;;;;;;5116715;28;863;-70
2023/04/03 14:23:23;;;;;;;;;;;;;;;;;;5116200;28;887;-71
2023/04/03 14:25:49;;;;;;;;;;;;;;;;;;5097603;28;1969;-70
2023/04/03 14:28:16;;;;;;;;;;;;;;;;;;5097753;28;1222;-70
2023/04/03 14:30:42;;;;;;;;;;;;;;;;;;5097311;28;1242;-70
2023/04/03 14:33:10;;;;;;;;;;;;;;;;;;5115262;28;1360;-70
2023/04/03 14:35:36;;;;;;;;;;;;;;;;;;5098297;28;1104;-72
2023/04/03 14:38:01;;;;;;;;;;;;;;;;;;5075275;28;1376;-71
2023/04/03 14:40:27;;;;;;;;;;;;;;;;;;5097775;28;1226;-72
2023/04/03 14:42:54;;;;;;;;;;;;;;;;;;5095170;28;829;-71
2023/04/03 14:45:21;;;;;;;;;;;;;;;;;;5077046;28;1961;-72
2023/04/03 14:47:48;;;;;;;;;;;;;;;;;;5076876;28;1405;-72
2023/04/03 14:50:16;;;;;;;;;;;;;;;;;;5076587;28;1171;-71
2023/04/03 14:52:42;;;;;;;;;;;;;;;;;;5095687;28;805;-71
2023/04/03 14:55:08;;;;;;;;;;;;;;;;;;5080374;28;1149;-71
2023/04/03 14:57:33;;;;;;;;;;;;;;;;;;5080196;28;1228;-71
2023/04/03 15:00:00;;;;;;;;;;;;;;;;;;5089303;28;1306;-71
2023/04/03 15:02:28;;;;;;;;;;;;;;;;;;5077364;28;911;-69
2023/04/03 15:04:54;;;;;;;;;;;;;;;;;;5076444;28;1966;-69
2023/04/03 15:07:20;;;;;;;;;;;;;;;;;;5075365;28;1108;-69
2023/04/03 15:09:45;;;;;;;;;;;;;;;;;;5074294;28;919;-69
2023/04/03 15:12:11;;;;;;;;;;;;;;;;;;5056204;28;825;-69
2023/04/03 15:14:36;;;;;;;;;;;;;;;;;;5074054;28;896;-70
2023/04/03 15:17:03;;;;;;;;;;;;;;;;;;5056111;28;916;-70
2023/04/03 15:19:29;;;;;;;;;;;;;;;;;;5055679;28;1338;-69
2023/04/03 15:21:54;;;;;;;;;;;;;;;;;;5050131;28;1264;-69
2023/04/03 15:24:19;;;;;;;;;;;;;;;;;;5059252;28;1910;-70
2023/04/03 15:26:46;;;;;;;;;;;;;;;;;;5069979;28;1216;-70
2023/04/03 15:29:11;;;;;;;;;;;;;;;;;;5072880;28;1201;-70
2023/04/03 15:31:37;;;;;;;;;;;;;;;;;;5073872;28;825;-70
2023/04/03 15:34:03;;;;;;;;;;;;;;;;;;5055185;28;1354;-70
2023/04/03 15:36:28;;;;;;;;;;;;;;;;;;5073602;28;908;-70
2023/04/03 15:38:53;;;;;;;;;;;;;;;;;;5055913;28;1259;-70
2023/04/03 15:41:18;;;;;;;;;;;;;;;;;;5071942;28;1305;-70
2023/04/03 15:43:44;;;;;;;;;;;;;;;;;;5072479;28;1906;-70
2023/04/03 15:46:09;;;;;;;;;;;;;;;;;;5073348;28;809;-70
2023/04/03 15:48:36;;;;;;;;;;;;;;;;;;5073777;28;1047;-70
2023/04/03 15:51:01;;;;;;;;;;;;;;;;;;5055527;28;1255;-70
2023/04/03 15:53:27;;;;;;;;;;;;;;;;;;5055415;28;1315;-69
2023/04/03 15:55:52;;;;;;;;;;;;;;;;;;5073938;28;1058;-70
2023/04/03 15:58:23;;;;;;;;;;;;;;;;;;5073505;28;959;-69
2023/04/03 16:00:49;;;;;;;;;;;;;;;;;;5055710;28;1235;-69
2023/04/03 16:03:19;;;;;;;;;;;;;;;;;;5055786;28;951;-69
2023/04/03 16:05:45;;;;;;;;;;;;;;;;;;5073652;28;1937;-69
2023/04/03 16:08:11;;;;;;;;;;;;;;;;;;5060200;28;1110;-69
2023/04/03 16:10:36;;;;;;;;;;;;;;;;;;5074054;28;800;-69
2023/04/03 16:13:02;;;;;;;;;;;;;;;;;;5072405;28;1321;-71
2023/04/03 16:15:28;;;;;;;;;;;;;;;;;;5072132;28;1351;-70
2023/04/03 16:17:53;;;;;;;;;;;;;;;;;;5072307;28;1309;-71
2023/04/03 16:20:19;;;;;;;;;;;;;;;;;;5073166;28;983;-71
2023/04/03 16:22:44;;;;;;;;;;;;;;;;;;5072023;28;1303;-70
2023/04/03 16:25:10;;;;;;;;;;;;;;;;;;5088378;28;1957;-71
2023/04/03 16:27:43;;;;;;;;;;;;;;;;;;5071616;28;1437;-71
2023/04/03 16:30:09;;;;;;;;;;;;;;;;;;5071619;28;1361;-71
2023/04/03 16:32:36;;;;;;;;;;;;;;;;;;5073192;28;1044;-71
2023/04/03 16:35:01;;;;;;;;;;;;;;;;;;5072648;28;912;-70
2023/04/03 16:37:27;;;;;;;;;;;;;;;;;;5073075;28;948;-71
2023/04/03 16:39:52;;;;;;;;;;;;;;;;;;5088715;28;852;-71
2023/04/03 16:42:18;;;;;;;;;;;;;;;;;;5070838;28;1235;-71
2023/04/03 16:44:43;;;;;;;;;;;;;;;;;;5087162;28;1914;-71
2023/04/03 16:47:10;;;;;;;;;;;;;;;;;;5072326;28;891;-71
2023/04/03 16:49:35;;;;;;;;;;;;;;;;;;5071651;28;808;-71
2023/04/03 16:52:02;;;;;;;;;;;;;;;;;;5071605;28;1186;-71
2023/04/03 16:54:27;;;;;;;;;;;;;;;;;;5073780;28;1156;-71
2023/04/03 16:56:53;;;;;;;;;;;;;;;;;;5075643;28;1235;-71
2023/04/03 16:59:18;;;;;;;;;;;;;;;;;;5076804;28;899;-71
2023/04/03 17:01:43;;;;;;;;;;;;;;;;;;5076757;28;856;-71
2023/04/03 17:04:09;;;;;;;;;;;;;;;;;;5075613;28;1893;-71
2023/04/03 17:06:34;;;;;;;;;;;;;;;;;;5077052;28;999;-71
2023/04/03 17:09:00;;;;;;;;;;;;;;;;;;5075312;28;1186;-71
2023/04/03 17:11:26;;;;;;;;;;;;;;;;;;5091838;28;1247;-72